Terminal Aerodrome Forecast
Issued by NWS Jackson, MS

Home | Current Version | Previous Version | Text Only | Print | Product List | Glossary On
Versions: 1 2 3 4 5 6 7 8 9 10 11 12 13 14 15
000
FTUS44 KJAN 280548
TAFGLH
TAF
KGLH 280548Z 2806/2906 22010KT P6SM BKN050
     FM280700 30004KT P6SM OVC015
     FM280900 32004KT 4SM BR OVC010
     FM281400 06006KT P6SM OVC020
     FM281900 10005KT P6SM SCT040=

USA.gov is the U.S. government's official web portal to all federal, state and local government web resources and services.